Time;durP1;ratioP1;P1;durP2;ratioP2;P2;SDS_P1;SDS_P2;PMS_P1;PMS_P2;Temp;Humidity;BMP_temperature;BMP_pressure;BME280_temperature;BME280_humidity;BME280_pressure;Samples;Min_cycle;Max_cycle;Signal;HPM_P1;HPM_P2
2023/06/16 00:01:14;;;;;;;6.18;4.05;;;18.50;95.30;;;;;;5000176;28;20050;-96
2023/06/16 00:03:41;;;;;;;7.22;3.38;;;18.50;95.30;;;;;;4998246;28;20053;-96
2023/06/16 00:06:13;;;;;;;9.63;4.10;;;18.40;95.30;;;;;;4988553;28;20030;-92
2023/06/16 00:08:54;;;;;;;8.45;3.67;;;18.30;95.40;;;;;;4973225;28;20046;-93
2023/06/16 00:11:20;;;;;;;6.47;3.47;;;18.30;95.60;;;;;;4981246;28;20485;-93
2023/06/16 00:13:48;;;;;;;5.80;3.50;;;18.30;95.20;;;;;;4978579;28;20126;-93
2023/06/16 00:16:19;;;;;;;7.45;3.78;;;18.30;95.10;;;;;;4983334;28;20038;-94
2023/06/16 00:18:46;;;;;;;6.78;3.70;;;18.30;95.30;;;;;;4980634;28;20125;-93
2023/06/16 00:21:19;;;;;;;6.93;3.97;;;18.30;95.50;;;;;;4977202;28;20460;-93
2023/06/16 00:23:46;;;;;;;8.30;4.17;;;18.20;95.70;;;;;;4997195;28;20041;-93
2023/06/16 00:26:12;;;;;;;4.78;3.17;;;18.30;95.50;;;;;;5028836;28;20038;-94
2023/06/16 00:28:40;;;;;;;10.23;3.90;;;18.20;95.50;;;;;;4996081;28;20041;-95
2023/06/16 00:31:07;;;;;;;6.22;4.00;;;18.10;95.90;;;;;;4988351;28;20039;-96
2023/06/16 00:33:33;;;;;;;6.20;3.80;;;18.20;95.60;;;;;;5005589;28;20034;-95
2023/06/16 00:35:59;;;;;;;6.75;3.67;;;18.00;96.20;;;;;;4989540;28;20327;-94
2023/06/16 00:38:28;;;;;;;6.35;3.85;;;17.90;96.30;;;;;;4990830;28;20045;-95
2023/06/16 00:40:54;;;;;;;6.95;3.75;;;17.70;96.20;;;;;;4988694;28;20047;-96
2023/06/16 00:43:20;;;;;;;6.25;3.47;;;17.70;96.20;;;;;;5001815;28;20037;-96
2023/06/16 00:45:49;;;;;;;7.78;4.72;;;17.60;96.50;;;;;;5001499;28;20053;-95
2023/06/16 00:48:16;;;;;;;11.05;3.97;;;17.50;97.00;;;;;;5021239;28;20037;-95
2023/06/16 00:50:43;;;;;;;6.25;4.00;;;17.40;96.90;;;;;;5037642;28;20041;-95
2023/06/16 00:53:09;;;;;;;5.88;3.40;;;17.30;97.00;;;;;;5008352;28;20045;-95
2023/06/16 00:55:36;;;;;;;8.45;4.47;;;17.30;96.90;;;;;;5001844;28;20038;-95
2023/06/16 00:58:03;;;;;;;6.47;4.07;;;17.30;97.30;;;;;;4994894;28;20097;-96
2023/06/16 01:00:35;;;;;;;9.70;4.20;;;17.40;97.20;;;;;;5014962;28;20476;-94
2023/06/16 01:03:08;;;;;;;5.82;3.88;;;17.40;96.80;;;;;;5000877;28;20045;-94
2023/06/16 01:05:35;;;;;;;6.28;4.35;;;17.40;96.90;;;;;;5008162;28;20038;-94
2023/06/16 01:08:50;;;;;;;7.13;4.15;;;17.40;96.80;;;;;;4992000;28;20041;-96
2023/06/16 01:11:29;;;;;;;7.07;3.90;;;17.40;96.60;;;;;;4915200;29;20047;-95
2023/06/16 01:14:16;;;;;;;6.78;4.45;;;17.40;97.20;;;;;;4932887;29;20035;-95
2023/06/16 01:16:48;;;;;;;9.85;5.55;;;17.40;96.80;;;;;;4929304;29;20131;-95
2023/06/16 01:19:37;;;;;;;6.22;4.03;;;17.40;96.90;;;;;;4911219;29;20543;-95
2023/06/16 01:22:26;;;;;;;7.78;4.45;;;17.40;97.30;;;;;;4905764;29;20052;-95
2023/06/16 01:25:04;;;;;;;7.50;4.38;;;17.30;97.20;;;;;;4937848;29;20047;-94
2023/06/16 01:27:32;;;;;;;7.88;5.72;;;17.30;97.00;;;;;;4941460;29;20059;-95
2023/06/16 01:30:02;;;;;;;7.72;4.78;;;17.50;97.20;;;;;;4907176;29;20055;-95
2023/06/16 01:32:31;;;;;;;7.78;4.43;;;17.30;97.50;;;;;;4919982;29;20042;-94
2023/06/16 01:35:05;;;;;;;6.50;4.63;;;17.20;97.00;;;;;;4925303;29;20526;-96
2023/06/16 01:37:31;;;;;;;6.60;4.32;;;17.30;97.10;;;;;;4943142;29;20125;-95
2023/06/16 01:39:57;;;;;;;8.38;5.00;;;17.30;97.00;;;;;;4940379;29;20507;-93
2023/06/16 01:42:24;;;;;;;6.72;4.00;;;17.20;97.00;;;;;;4989005;28;20045;-94
2023/06/16 01:44:52;;;;;;;9.60;5.55;;;17.20;97.40;;;;;;4994151;28;20045;-95
2023/06/16 01:47:18;;;;;;;7.60;3.80;;;17.20;97.80;;;;;;4991288;28;20044;-95
2023/06/16 01:49:44;;;;;;;6.80;3.72;;;17.10;97.40;;;;;;4994212;28;20038;-93
2023/06/16 01:52:10;;;;;;;6.15;4.35;;;17.00;97.50;;;;;;5002965;28;20034;-94
2023/06/16 01:54:36;;;;;;;7.47;4.30;;;16.90;97.00;;;;;;4999172;28;20064;-93
2023/06/16 01:57:08;;;;;;;7.68;4.18;;;17.00;97.40;;;;;;5005487;28;20041;-94
2023/06/16 01:59:34;;;;;;;9.35;5.70;;;17.00;97.60;;;;;;5003947;28;20061;-95
2023/06/16 02:02:05;;;;;;;8.45;5.30;;;17.00;97.70;;;;;;5011211;28;20072;-95
2023/06/16 02:04:32;;;;;;;7.57;4.40;;;16.90;97.60;;;;;;5008429;28;20052;-95
2023/06/16 02:07:09;;;;;;;7.78;5.18;;;16.90;97.60;;;;;;4985475;28;20077;-95
2023/06/16 02:09:37;;;;;;;7.38;4.40;;;16.60;98.00;;;;;;4985599;28;20038;-94
2023/06/16 02:12:05;;;;;;;7.38;4.55;;;16.80;98.00;;;;;;4985033;28;20381;-94
2023/06/16 02:14:34;;;;;;;8.40;5.00;;;16.80;98.00;;;;;;4992084;28;20073;-95
2023/06/16 02:17:07;;;;;;;8.70;4.90;;;16.80;98.10;;;;;;4982092;28;20030;-95
2023/06/16 02:19:33;;;;;;;6.28;4.70;;;16.80;97.80;;;;;;5008600;28;20138;-95
2023/06/16 02:22:00;;;;;;;8.00;4.82;;;16.80;97.60;;;;;;5001250;28;20049;-94
2023/06/16 02:24:30;;;;;;;7.20;4.03;;;16.80;98.00;;;;;;5024299;28;20120;-95
2023/06/16 02:26:55;;;;;;;6.20;4.38;;;16.80;97.50;;;;;;4992372;28;20131;-94
2023/06/16 02:29:24;;;;;;;10.63;5.30;;;17.00;97.30;;;;;;4976040;28;20050;-94
2023/06/16 02:31:57;;;;;;;7.38;4.45;;;16.80;97.40;;;;;;5004377;28;20103;-94
2023/06/16 02:34:23;;;;;;;9.38;5.80;;;16.70;97.70;;;;;;4988982;28;20045;-94
2023/06/16 02:36:50;;;;;;;7.60;4.55;;;16.80;97.60;;;;;;5003643;28;20577;-94
2023/06/16 02:39:21;;;;;;;8.32;5.30;;;16.70;97.40;;;;;;5005122;28;20038;-94
2023/06/16 02:41:51;;;;;;;8.00;5.05;;;16.60;97.50;;;;;;5004534;28;20053;-94
2023/06/16 02:44:17;;;;;;;8.05;4.97;;;16.60;97.70;;;;;;5009068;28;20033;-94
2023/06/16 02:46:43;;;;;;;10.23;5.15;;;16.60;97.80;;;;;;4990161;28;20098;-95
2023/06/16 02:49:10;;;;;;;6.95;4.85;;;16.60;97.80;;;;;;4993212;28;20030;-95
2023/06/16 02:51:36;;;;;;;7.30;5.60;;;16.50;97.70;;;;;;4998276;28;20140;-94
2023/06/16 02:54:06;;;;;;;7.82;5.50;;;15.80;97.60;;;;;;4997067;28;20050;-94
2023/06/16 02:56:32;;;;;;;8.75;4.82;;;16.40;97.90;;;;;;4980589;28;20065;-94
2023/06/16 02:59:03;;;;;;;6.57;4.65;;;16.00;97.70;;;;;;4994012;28;20046;-94
2023/06/16 03:01:38;;;;;;;9.75;6.00;;;16.40;98.20;;;;;;5002103;28;20065;-94
2023/06/16 03:04:05;;;;;;;7.97;5.80;;;16.40;98.30;;;;;;4984858;28;20045;-94
2023/06/16 03:06:34;;;;;;;7.95;5.57;;;16.40;98.50;;;;;;5004188;28;20068;-94
2023/06/16 03:09:03;;;;;;;10.23;6.55;;;16.30;98.70;;;;;;4999849;28;20030;-94
2023/06/16 03:11:32;;;;;;;8.50;5.72;;;16.20;98.70;;;;;;4988825;28;20034;-94
2023/06/16 03:14:01;;;;;;;6.97;5.15;;;16.10;98.60;;;;;;4986480;28;20033;-93
2023/06/16 03:16:33;;;;;;;8.00;5.13;;;16.10;98.60;;;;;;4981613;28;20054;-94
2023/06/16 03:18:59;;;;;;;6.70;4.47;;;16.60;98.60;;;;;;5003350;28;20071;-93
2023/06/16 03:21:26;;;;;;;6.82;4.95;;;16.10;97.80;;;;;;4986293;28;20072;-93
2023/06/16 03:24:01;;;;;;;7.43;5.05;;;16.30;98.00;;;;;;4985661;28;20044;-93
2023/06/16 03:26:28;;;;;;;7.50;4.80;;;16.30;97.70;;;;;;5002907;28;20045;-93
2023/06/16 03:28:54;;;;;;;6.93;5.57;;;16.30;97.50;;;;;;5015848;28;20120;-94
2023/06/16 03:31:20;;;;;;;10.60;7.35;;;16.30;97.90;;;;;;4983264;28;20066;-93
2023/06/16 03:33:46;;;;;;;9.90;7.22;;;16.30;98.10;;;;;;4993373;28;20050;-93
2023/06/16 03:36:12;;;;;;;8.93;6.22;;;16.60;99.10;;;;;;4980524;28;20042;-93
2023/06/16 03:38:41;;;;;;;8.15;5.57;;;16.20;98.50;;;;;;4988497;28;20469;-95
2023/06/16 03:41:07;;;;;;;7.78;6.25;;;16.20;98.40;;;;;;5002175;28;20197;-92
2023/06/16 03:43:33;;;;;;;9.43;6.63;;;16.10;98.60;;;;;;4977556;28;20056;-94
2023/06/16 03:45:59;;;;;;;9.00;6.75;;;16.10;98.30;;;;;;4996190;28;20038;-93
2023/06/16 03:48:28;;;;;;;8.63;6.60;;;16.10;99.20;;;;;;4981394;28;20086;-93
2023/06/16 03:50:53;;;;;;;8.40;5.88;;;15.80;98.80;;;;;;4989787;28;20038;-93
2023/06/16 03:53:27;;;;;;;8.80;7.00;;;16.10;98.90;;;;;;4982915;28;20041;-94
2023/06/16 03:55:53;;;;;;;8.70;6.68;;;16.20;99.70;;;;;;4980283;28;20034;-93
2023/06/16 03:58:22;;;;;;;8.00;6.18;;;16.10;99.00;;;;;;4983976;28;20042;-92
2023/06/16 04:00:48;;;;;;;8.77;6.25;;;16.20;98.70;;;;;;4986327;28;20041;-94
2023/06/16 04:03:15;;;;;;;11.27;8.57;;;16.30;98.80;;;;;;5027303;28;20064;-95
2023/06/16 04:05:41;;;;;;;10.57;7.35;;;16.30;98.60;;;;;;5010213;28;20077;-94
2023/06/16 04:08:07;;;;;;;8.85;7.00;;;16.30;98.90;;;;;;5003214;28;20034;-94
2023/06/16 04:10:37;;;;;;;10.70;7.82;;;16.40;98.90;;;;;;4992831;28;20038;-94
2023/06/16 04:13:03;;;;;;;9.85;7.47;;;16.40;98.90;;;;;;4992934;28;20044;-94
2023/06/16 04:15:29;;;;;;;11.23;8.90;;;16.40;99.10;;;;;;5004479;28;20042;-94
2023/06/16 04:17:56;;;;;;;10.82;8.70;;;16.40;99.90;;;;;;4988869;28;20045;-92
2023/06/16 04:20:25;;;;;;;16.25;10.30;;;16.40;99.80;;;;;;5002198;28;20095;-94
2023/06/16 04:22:58;;;;;;;13.93;10.70;;;16.40;99.60;;;;;;5004950;28;20053;-94
2023/06/16 04:25:25;;;;;;;11.70;10.37;;;16.40;99.90;;;;;;5002931;28;20065;-92
2023/06/16 04:27:58;;;;;;;14.63;11.13;;;16.40;99.90;;;;;;5022470;28;20037;-93
2023/06/16 04:30:24;;;;;;;15.38;12.13;;;16.30;99.90;;;;;;4985002;28;20088;-92
2023/06/16 04:32:51;;;;;;;11.43;10.20;;;16.40;99.90;;;;;;5017878;28;20073;-94
2023/06/16 04:35:17;;;;;;;14.68;11.52;;;16.30;99.90;;;;;;5001025;28;20041;-93
2023/06/16 04:37:43;;;;;;;12.10;9.38;;;16.60;99.90;;;;;;4985148;28;20038;-93
2023/06/16 04:40:12;;;;;;;10.98;8.73;;;16.30;99.90;;;;;;4985217;28;20124;-93
2023/06/16 04:42:42;;;;;;;13.50;10.90;;;16.30;99.90;;;;;;4999435;28;20042;-92
2023/06/16 04:45:08;;;;;;;17.17;13.15;;;16.30;99.90;;;;;;4997814;28;20068;-93
2023/06/16 04:47:35;;;;;;;14.90;11.35;;;16.30;99.90;;;;;;4992115;28;20045;-93
2023/06/16 04:50:20;;;;;;;16.02;12.63;;;16.30;99.90;;;;;;4985793;28;20069;-93
2023/06/16 04:52:48;;;;;;;18.17;15.15;;;16.30;99.90;;;;;;5011910;28;20392;-93
2023/06/16 04:55:17;;;;;;;17.38;14.85;;;16.30;99.90;;;;;;4986311;28;20039;-93
2023/06/16 04:57:46;;;;;;;13.18;11.05;;;16.30;99.90;;;;;;4978435;28;20030;-94
2023/06/16 05:00:13;;;;;;;15.35;11.63;;;16.30;99.90;;;;;;5003315;28;20037;-94
2023/06/16 05:02:40;;;;;;;18.15;15.20;;;16.30;99.90;;;;;;4995515;28;20042;-93
2023/06/16 05:05:06;;;;;;;15.45;11.90;;;16.30;99.90;;;;;;4986413;28;20145;-93
2023/06/16 05:07:32;;;;;;;23.25;16.75;;;16.30;99.90;;;;;;5006217;28;20061;-91
2023/06/16 05:09:58;;;;;;;17.75;14.63;;;16.30;99.90;;;;;;5005536;28;20029;-90
2023/06/16 05:12:27;;;;;;;17.27;13.57;;;16.30;99.90;;;;;;5016687;28;20073;-79
2023/06/16 05:14:53;;;;;;;17.83;14.63;;;16.30;99.90;;;;;;5013857;28;20046;-81
2023/06/16 05:17:19;;;;;;;21.45;16.75;;;16.30;99.90;;;;;;5018160;28;20076;-80
2023/06/16 05:19:45;;;;;;;22.23;16.77;;;16.40;99.90;;;;;;5019122;28;20030;-81
2023/06/16 05:22:12;;;;;;;19.45;15.40;;;16.40;99.90;;;;;;5018414;28;20057;-81
2023/06/16 05:24:38;;;;;;;13.48;10.75;;;16.40;99.90;;;;;;5017356;28;20090;-81
2023/06/16 05:27:04;;;;;;;18.05;15.68;;;16.40;99.90;;;;;;5023554;28;20069;-80
2023/06/16 05:29:33;;;;;;;19.50;15.80;;;16.40;99.90;;;;;;5020431;28;20038;-80
2023/06/16 05:31:58;;;;;;;18.50;15.48;;;16.40;99.90;;;;;;5009955;28;20041;-80
2023/06/16 05:34:24;;;;;;;22.73;17.92;;;16.40;99.90;;;;;;5013976;28;20065;-80
2023/06/16 05:36:50;;;;;;;17.55;15.05;;;16.50;99.90;;;;;;5011041;28;20033;-80
2023/06/16 05:39:16;;;;;;;19.10;16.58;;;16.50;99.90;;;;;;5020344;28;20048;-80
2023/06/16 05:41:42;;;;;;;21.08;16.25;;;16.50;99.90;;;;;;5020715;28;20052;-80
2023/06/16 05:44:08;;;;;;;18.20;15.70;;;16.60;99.90;;;;;;5019165;28;20119;-81
2023/06/16 05:46:33;;;;;;;21.48;17.45;;;16.60;99.90;;;;;;4996610;28;20038;-82
2023/06/16 05:48:59;;;;;;;21.45;17.27;;;16.60;99.90;;;;;;5002736;28;20092;-82
2023/06/16 05:51:25;;;;;;;15.32;12.05;;;16.60;99.90;;;;;;5005819;28;20489;-82
2023/06/16 05:53:50;;;;;;;20.23;16.52;;;16.60;99.90;;;;;;5016835;28;20038;-84
2023/06/16 05:56:16;;;;;;;20.42;16.35;;;16.70;99.90;;;;;;4994692;28;20453;-83
2023/06/16 05:58:42;;;;;;;22.98;18.77;;;16.80;99.90;;;;;;5016721;28;20037;-85
2023/06/16 06:01:08;;;;;;;19.75;15.65;;;16.80;99.90;;;;;;5024398;28;20041;-84
2023/06/16 06:03:35;;;;;;;20.80;17.00;;;16.80;99.90;;;;;;5025935;28;20038;-84
2023/06/16 06:06:01;;;;;;;21.83;18.95;;;16.80;99.90;;;;;;5016107;28;20048;-82
2023/06/16 06:17:18;;;;;;;22.30;19.10;;;17.00;99.90;;;;;;1158929;22;20524;31
2023/06/16 06:19:49;;;;;;;19.67;15.77;;;17.20;99.90;;;;;;5011910;28;20101;-93
2023/06/16 06:42:50;;;;;;;17.13;13.73;;;17.60;99.90;;;;;;5008244;28;20057;-93
2023/06/16 06:45:16;;;;;;;16.13;12.95;;;17.60;99.90;;;;;;4981492;28;20038;-91
2023/06/16 06:47:42;;;;;;;16.60;13.20;;;17.60;99.90;;;;;;4986245;28;20481;-91
2023/06/16 06:50:08;;;;;;;15.18;11.82;;;18.00;99.90;;;;;;5007616;28;20042;-90
2023/06/16 06:52:34;;;;;;;14.35;12.18;;;17.80;99.90;;;;;;4971797;28;20121;-91
2023/06/16 06:54:59;;;;;;;16.08;12.30;;;17.80;99.90;;;;;;4980930;28;20084;-91
2023/06/16 06:57:25;;;;;;;19.40;13.13;;;17.90;99.90;;;;;;5004912;28;20050;-91
2023/06/16 06:59:50;;;;;;;14.50;12.57;;;17.90;99.90;;;;;;4997362;28;20133;-87
2023/06/16 07:02:16;;;;;;;13.57;11.70;;;18.00;99.90;;;;;;5000326;28;20029;-88
2023/06/16 07:04:42;;;;;;;16.13;11.93;;;18.10;99.90;;;;;;4993767;28;20049;-89
2023/06/16 07:07:08;;;;;;;14.68;11.00;;;18.10;99.90;;;;;;4996561;28;20045;-88
2023/06/16 07:09:35;;;;;;;16.30;12.25;;;18.30;99.90;;;;;;4998128;28;20048;-89
2023/06/16 07:12:01;;;;;;;13.95;10.73;;;18.50;99.90;;;;;;5009775;28;20053;-89
2023/06/16 07:14:27;;;;;;;13.35;10.88;;;18.70;99.90;;;;;;4978906;28;20038;-88
2023/06/16 07:16:52;;;;;;;13.27;10.60;;;19.00;99.90;;;;;;4992106;28;20033;-88
2023/06/16 07:19:18;;;;;;;13.10;10.15;;;19.40;99.90;;;;;;4986103;28;20053;-88
2023/06/16 07:21:45;;;;;;;11.77;9.25;;;19.60;99.90;;;;;;5005672;28;20042;-88
2023/06/16 07:24:11;;;;;;;12.00;9.35;;;19.90;99.90;;;;;;4985765;28;20089;-88
2023/06/16 07:26:37;;;;;;;12.75;9.30;;;20.20;99.90;;;;;;4995182;28;20046;-88
2023/06/16 07:29:03;;;;;;;13.82;8.75;;;20.40;99.90;;;;;;5012579;28;20038;-88
2023/06/16 07:31:28;;;;;;;11.95;10.23;;;20.60;99.90;;;;;;5006614;28;20116;-88
2023/06/16 07:33:55;;;;;;;11.55;8.27;;;20.80;99.90;;;;;;5007011;28;20038;-88
2023/06/16 07:36:21;;;;;;;12.43;8.88;;;20.90;99.90;;;;;;5007200;28;20066;-87
2023/06/16 07:38:46;;;;;;;13.43;8.63;;;21.10;99.90;;;;;;5008980;28;20042;-87
2023/06/16 07:41:12;;;;;;;13.23;8.70;;;21.20;99.70;;;;;;5015457;28;20060;-86
2023/06/16 07:43:38;;;;;;;11.68;8.50;;;21.30;98.80;;;;;;5013845;28;20050;-87
2023/06/16 07:46:04;;;;;;;9.85;8.60;;;21.40;98.90;;;;;;5008005;28;20049;-88
2023/06/16 07:51:02;;;;;;;10.63;8.77;;;21.60;98.80;;;;;;5056322;22;20046;-91
2023/06/16 07:53:27;;;;;;;10.88;8.55;;;21.70;98.90;;;;;;5000776;28;20035;-90
2023/06/16 07:55:53;;;;;;;12.27;9.60;;;21.80;98.50;;;;;;5001491;28;20050;-93
2023/06/16 07:58:20;;;;;;;11.02;8.35;;;21.90;98.20;;;;;;4995276;28;20029;-91
2023/06/16 08:00:46;;;;;;;9.40;8.40;;;22.00;98.20;;;;;;5012173;28;20046;-91
2023/06/16 08:03:12;;;;;;;11.05;8.82;;;22.00;98.20;;;;;;5023839;28;20042;-90
2023/06/16 08:05:38;;;;;;;10.68;8.50;;;22.10;98.00;;;;;;4996927;28;20406;-89
2023/06/16 08:08:03;;;;;;;12.70;8.90;;;22.10;98.00;;;;;;5022192;28;20073;-90
2023/06/16 08:10:29;;;;;;;12.00;8.27;;;22.20;98.10;;;;;;5002285;28;20046;-89
2023/06/16 08:12:55;;;;;;;10.90;8.50;;;22.30;98.20;;;;;;5027305;28;20044;-89
2023/06/16 08:15:20;;;;;;;12.65;8.90;;;22.30;97.80;;;;;;5007068;28;20049;-89
2023/06/16 08:17:46;;;;;;;11.25;7.70;;;22.30;97.70;;;;;;4987581;28;20050;-88
2023/06/16 08:20:12;;;;;;;9.98;7.70;;;22.40;97.80;;;;;;5012881;28;20395;-88
2023/06/16 08:22:38;;;;;;;10.48;6.90;;;22.50;97.30;;;;;;5003464;28;20097;-90
2023/06/16 08:25:05;;;;;;;10.23;7.15;;;22.60;96.90;;;;;;5000228;28;20382;-88
2023/06/16 08:27:30;;;;;;;10.57;6.95;;;22.60;96.70;;;;;;4991465;28;20053;-87
2023/06/16 08:29:58;;;;;;;10.43;7.22;;;22.70;96.80;;;;;;5000154;28;20037;-89
2023/06/16 08:32:23;;;;;;;8.25;6.70;;;22.70;96.70;;;;;;4986374;28;20213;-88
2023/06/16 08:34:49;;;;;;;8.13;6.80;;;22.80;96.60;;;;;;5017474;28;20378;-90
2023/06/16 08:37:15;;;;;;;9.05;6.60;;;22.90;96.50;;;;;;4995854;28;20091;-89
2023/06/16 08:39:44;;;;;;;10.88;6.80;;;23.00;96.30;;;;;;4987178;28;20034;-88
2023/06/16 08:42:11;;;;;;;9.57;5.82;;;22.90;96.40;;;;;;4990186;28;20042;-88
2023/06/16 08:44:39;;;;;;;10.90;6.97;;;23.00;96.40;;;;;;4984937;28;20116;-88
2023/06/16 08:47:05;;;;;;;11.15;6.68;;;23.10;96.30;;;;;;4987259;28;20034;-89
2023/06/16 08:49:32;;;;;;;8.23;5.57;;;23.20;96.30;;;;;;5017505;28;20054;-90
2023/06/16 08:52:07;;;;;;;8.57;5.68;;;23.20;96.10;;;;;;5001544;28;20058;-89
2023/06/16 08:54:38;;;;;;;9.35;6.57;;;23.30;96.30;;;;;;4987589;28;20112;-90
2023/06/16 08:57:09;;;;;;;6.53;4.95;;;23.40;95.80;;;;;;4996247;28;20481;-89
2023/06/16 08:59:36;;;;;;;7.57;4.43;;;23.40;95.80;;;;;;5018938;28;20041;-87
2023/06/16 09:02:02;;;;;;;7.75;5.55;;;23.40;95.10;;;;;;4981009;28;20586;-86
2023/06/16 09:04:29;;;;;;;9.23;5.45;;;23.50;95.00;;;;;;4996901;28;20616;-87
2023/06/16 09:06:56;;;;;;;7.90;4.53;;;23.50;94.30;;;;;;5001922;28;20033;-86
2023/06/16 09:09:22;;;;;;;7.30;4.40;;;23.60;93.70;;;;;;5028537;28;20092;-86
2023/06/16 09:12:08;;;;;;;6.75;4.40;;;23.60;92.90;;;;;;5022509;28;20034;-86
2023/06/16 09:14:37;;;;;;;7.95;4.38;;;23.70;92.10;;;;;;5003569;28;20041;-86
2023/06/16 09:17:05;;;;;;;7.57;4.13;;;23.70;93.20;;;;;;5026104;28;20037;-86
2023/06/16 09:19:35;;;;;;;8.32;4.47;;;23.70;92.60;;;;;;4998820;28;20069;-86
2023/06/16 09:22:02;;;;;;;6.75;3.80;;;23.80;92.30;;;;;;5004441;28;20065;-86
2023/06/16 09:24:28;;;;;;;5.68;3.45;;;23.90;92.10;;;;;;4996200;28;20046;-86
2023/06/16 09:27:00;;;;;;;5.88;3.30;;;23.90;91.50;;;;;;4997135;28;20045;-86
2023/06/16 09:29:27;;;;;;;7.30;3.17;;;23.90;90.10;;;;;;5017558;28;20025;-87
2023/06/16 09:32:05;;;;;;;8.95;2.85;;;23.90;90.20;;;;;;4988024;28;20395;-86
2023/06/16 09:34:32;;;;;;;5.53;3.00;;;24.00;90.70;;;;;;4987676;28;20079;-86
2023/06/16 09:36:58;;;;;;;5.22;3.15;;;24.00;90.80;;;;;;5012420;28;20036;-86
2023/06/16 09:39:25;;;;;;;6.13;3.15;;;24.10;90.30;;;;;;5019037;28;20062;-86
2023/06/16 09:41:52;;;;;;;6.82;3.03;;;24.10;90.40;;;;;;5015855;28;20042;-86
2023/06/16 09:44:19;;;;;;;5.45;3.38;;;24.20;90.20;;;;;;4978146;28;20094;-86
2023/06/16 09:46:48;;;;;;;4.90;2.47;;;24.30;90.10;;;;;;5021038;28;20057;-86
2023/06/16 09:49:25;;;;;;;4.82;2.95;;;24.40;88.80;;;;;;5006658;28;20105;-86
2023/06/16 09:51:55;;;;;;;8.00;2.92;;;24.40;88.10;;;;;;4983708;28;20095;-89
2023/06/16 09:54:22;;;;;;;5.97;2.72;;;24.50;89.40;;;;;;5003303;28;20042;-86
2023/06/16 09:56:49;;;;;;;5.93;2.80;;;24.50;89.70;;;;;;4997589;28;20042;-86
2023/06/16 09:59:15;;;;;;;5.85;3.17;;;24.60;89.30;;;;;;5026602;28;20034;-85
2023/06/16 10:01:45;;;;;;;4.35;2.80;;;24.60;88.40;;;;;;5006746;28;20061;-86
2023/06/16 10:04:15;;;;;;;4.65;3.10;;;24.60;87.00;;;;;;5020536;28;20044;-86
2023/06/16 10:07:02;;;;;;;6.18;3.40;;;24.50;86.40;;;;;;4976141;28;20088;-86
2023/06/16 10:09:35;;;;;;;6.32;3.17;;;24.60;86.60;;;;;;5012227;28;20046;-87
2023/06/16 10:12:01;;;;;;;4.63;2.80;;;24.60;85.70;;;;;;5014150;28;20035;-87
2023/06/16 10:14:30;;;;;;;5.63;3.15;;;24.60;86.20;;;;;;4987769;28;20072;-86
2023/06/16 10:16:56;;;;;;;5.47;2.90;;;24.60;85.70;;;;;;5003028;28;20037;-86
2023/06/16 10:19:23;;;;;;;5.60;2.90;;;24.60;84.90;;;;;;5001468;28;20104;-85
2023/06/16 10:21:53;;;;;;;5.18;2.60;;;24.70;85.20;;;;;;5017721;28;20038;-85
2023/06/16 10:24:19;;;;;;;7.60;2.67;;;24.70;84.50;;;;;;4998636;28;20046;-85
2023/06/16 10:26:47;;;;;;;5.78;2.60;;;24.80;84.30;;;;;;4990865;28;20042;-85
2023/06/16 10:29:17;;;;;;;4.78;2.35;;;24.80;85.20;;;;;;4993090;28;20048;-84
2023/06/16 10:31:44;;;;;;;5.70;2.45;;;24.90;83.80;;;;;;4991037;28;20045;-85
2023/06/16 10:34:21;;;;;;;4.57;2.70;;;24.90;84.50;;;;;;4979880;28;20116;-85
2023/06/16 10:36:49;;;;;;;4.97;2.40;;;25.00;84.90;;;;;;4995194;28;20084;-84
2023/06/16 10:39:16;;;;;;;6.82;2.97;;;25.10;84.90;;;;;;4993871;28;20038;-85
2023/06/16 10:41:51;;;;;;;4.57;2.65;;;25.20;83.10;;;;;;5009258;28;20042;-86
2023/06/16 10:44:23;;;;;;;4.82;2.30;;;25.20;83.00;;;;;;5009776;28;20088;-86
2023/06/16 10:47:05;;;;;;;4.50;2.30;;;25.20;81.30;;;;;;4998438;28;20035;-85
2023/06/16 10:49:31;;;;;;;3.92;2.35;;;25.20;83.30;;;;;;4994441;28;20055;-85
2023/06/16 10:52:02;;;;;;;3.38;2.10;;;25.30;83.00;;;;;;5018809;28;20076;-87
2023/06/16 10:54:36;;;;;;;4.53;2.65;;;25.30;81.70;;;;;;5012393;28;20485;-84
2023/06/16 10:57:06;;;;;;;4.55;2.33;;;25.40;83.00;;;;;;5014814;28;20040;-83
2023/06/16 10:59:55;;;;;;;5.80;2.13;;;25.50;82.00;;;;;;4985980;28;20146;-86
2023/06/16 11:02:25;;;;;;;5.88;2.30;;;25.60;82.30;;;;;;4976847;28;20045;-87
2023/06/16 11:05:10;;;;;;;5.60;2.60;;;25.60;82.10;;;;;;5014664;28;20038;-84
2023/06/16 11:08:08;;;;;;;5.75;2.30;;;25.80;82.80;;;;;;5008833;28;21706;-84
2023/06/16 11:11:04;;;;;;;4.25;2.45;;;26.00;82.60;;;;;;5010543;28;20061;-83
2023/06/16 11:13:33;;;;;;;4.80;2.50;;;26.00;81.10;;;;;;5006437;28;20046;-83
2023/06/16 11:16:00;;;;;;;9.13;2.90;;;26.20;81.40;;;;;;4976641;28;20537;-85
2023/06/16 11:18:27;;;;;;;7.88;3.00;;;26.30;81.30;;;;;;5009075;28;20029;-83
2023/06/16 11:20:57;;;;;;;6.93;2.50;;;26.30;81.30;;;;;;4990033;28;20066;-84
2023/06/16 11:23:23;;;;;;;6.15;2.70;;;26.30;81.60;;;;;;5019372;28;20048;-85
2023/06/16 11:25:50;;;;;;;5.18;2.35;;;26.40;81.00;;;;;;5007597;28;20088;-86
2023/06/16 11:28:21;;;;;;;3.90;2.22;;;26.50;81.00;;;;;;4992874;28;20516;-87
2023/06/16 11:30:47;;;;;;;4.47;2.40;;;26.60;81.30;;;;;;5016885;28;20065;-83
2023/06/16 11:33:16;;;;;;;6.70;2.60;;;26.70;81.60;;;;;;5013689;28;20042;-85
2023/06/16 11:35:43;;;;;;;8.20;2.67;;;26.70;80.30;;;;;;4995358;28;20053;-84
2023/06/16 11:38:08;;;;;;;7.10;2.40;;;26.70;78.90;;;;;;5016219;28;20290;-83
2023/06/16 11:40:35;;;;;;;3.63;2.40;;;26.70;79.40;;;;;;4992938;28;20129;-84
2023/06/16 11:43:05;;;;;;;4.55;2.35;;;26.80;80.00;;;;;;4995313;28;20058;-83
2023/06/16 11:45:38;;;;;;;3.25;2.05;;;26.80;79.30;;;;;;5016418;28;20046;-85
2023/06/16 11:48:08;;;;;;;5.07;2.33;;;26.90;79.70;;;;;;5016010;28;20046;-85
2023/06/16 11:50:35;;;;;;;7.90;2.42;;;26.90;78.90;;;;;;4983326;28;20065;-84
2023/06/16 11:53:01;;;;;;;4.50;2.38;;;26.90;79.10;;;;;;5003615;28;20042;-82
2023/06/16 11:55:26;;;;;;;3.97;2.40;;;27.00;79.80;;;;;;4987231;28;20062;-83
2023/06/16 11:57:52;;;;;;;5.97;2.45;;;27.00;78.40;;;;;;5015512;28;20034;-85
2023/06/16 12:00:21;;;;;;;5.32;2.33;;;27.00;78.40;;;;;;5015183;28;20040;-86
2023/06/16 12:02:48;;;;;;;4.93;2.35;;;27.00;78.70;;;;;;5004537;28;20112;-84
2023/06/16 12:05:22;;;;;;;8.70;2.17;;;27.10;77.50;;;;;;4978596;28;20046;-84
2023/06/16 12:07:49;;;;;;;4.15;2.30;;;27.10;78.20;;;;;;4992110;28;20067;-86
2023/06/16 12:10:16;;;;;;;4.82;1.88;;;27.20;78.90;;;;;;4993131;28;20400;-82
2023/06/16 12:12:42;;;;;;;7.25;2.05;;;27.30;78.40;;;;;;5009511;28;20045;-83
2023/06/16 12:15:12;;;;;;;5.32;2.00;;;27.30;77.90;;;;;;4988372;28;20043;-86
2023/06/16 12:17:39;;;;;;;5.18;2.15;;;27.30;77.70;;;;;;4992366;28;20484;-89
2023/06/16 12:20:06;;;;;;;4.72;2.20;;;27.30;78.10;;;;;;4993853;28;20037;-86
2023/06/16 12:22:38;;;;;;;6.30;1.90;;;27.30;77.90;;;;;;5019974;28;20041;-88
2023/06/16 12:25:18;;;;;;;4.15;2.10;;;27.40;77.50;;;;;;4982407;28;20052;-87
2023/06/16 12:27:45;;;;;;;6.10;2.40;;;27.50;77.80;;;;;;4989649;28;20057;-88
2023/06/16 12:30:12;;;;;;;3.58;2.17;;;27.50;77.70;;;;;;5020125;28;20044;-92
2023/06/16 12:32:41;;;;;;;8.43;2.30;;;27.40;77.60;;;;;;4992786;28;20042;-94
2023/06/16 12:35:12;;;;;;;4.53;2.10;;;27.40;78.00;;;;;;4982318;28;20042;-94
2023/06/16 12:37:41;;;;;;;3.97;2.00;;;27.50;77.00;;;;;;4985033;28;20104;-94
2023/06/16 12:40:15;;;;;;;5.55;2.55;;;27.50;77.50;;;;;;5031907;28;20041;-96
2023/06/16 12:42:41;;;;;;;5.13;2.72;;;27.60;77.30;;;;;;5019864;28;20045;-96
2023/06/16 12:45:07;;;;;;;6.70;2.30;;;27.50;77.60;;;;;;5016545;28;20042;-89
2023/06/16 12:47:34;;;;;;;5.72;2.40;;;27.40;77.80;;;;;;5002369;28;20065;-91
2023/06/16 12:50:02;;;;;;;5.20;2.28;;;27.40;77.70;;;;;;5022391;28;20077;-96
2023/06/16 12:52:29;;;;;;;7.18;2.78;;;27.40;77.50;;;;;;5000375;28;20077;-94
2023/06/16 12:54:57;;;;;;;4.25;2.20;;;27.50;77.00;;;;;;5027745;28;20045;-90
2023/06/16 12:57:24;;;;;;;5.05;2.00;;;27.60;77.40;;;;;;4996355;28;20054;-93
2023/06/16 12:59:53;;;;;;;4.78;2.25;;;27.70;77.80;;;;;;4992057;28;20050;-95
2023/06/16 13:02:20;;;;;;;3.92;1.95;;;27.80;77.80;;;;;;5004260;28;20034;-89
2023/06/16 13:04:45;;;;;;;8.10;2.33;;;27.90;75.20;;;;;;4996508;28;20038;-89
2023/06/16 13:07:11;;;;;;;4.32;2.05;;;27.90;76.50;;;;;;4972050;28;20033;-89
2023/06/16 13:09:37;;;;;;;4.47;2.75;;;27.90;75.40;;;;;;5001443;28;20038;-89
2023/06/16 13:12:04;;;;;;;4.30;2.30;;;27.90;76.20;;;;;;4988821;28;20045;-89
2023/06/16 13:14:30;;;;;;;6.50;2.38;;;27.90;75.90;;;;;;4993455;28;20523;-89
2023/06/16 13:16:55;;;;;;;4.25;2.55;;;27.90;76.30;;;;;;5010919;28;20038;-89
2023/06/16 13:19:21;;;;;;;6.35;2.30;;;28.00;76.70;;;;;;4988738;28;20045;-89